Time;durP1;ratioP1;P1;durP2;ratioP2;P2;SDS_P1;SDS_P2;PMS_P1;PMS_P2;Temp;Humidity;BMP_temperature;BMP_pressure;BME280_temperature;BME280_humidity;BME280_pressure;Samples;Min_cycle;Max_cycle;Signal;HPM_P1;HPM_P2
2023/11/07 00:00:27;;;;;;;6.70;6.60;;;8.70;99.90;;;;;;5020754;28;20461;-73
2023/11/07 00:02:55;;;;;;;6.30;6.20;;;8.70;99.90;;;;;;5014434;27;20493;-73
2023/11/07 00:05:22;;;;;;;7.07;6.97;;;8.80;99.90;;;;;;5014092;28;20927;-73
2023/11/07 00:07:49;;;;;;;6.50;6.40;;;8.70;99.90;;;;;;5019566;28;20457;-72
2023/11/07 00:10:17;;;;;;;7.20;7.10;;;8.80;99.90;;;;;;5014902;28;20584;-70
2023/11/07 00:12:44;;;;;;;6.63;6.53;;;8.70;99.90;;;;;;5024481;27;20855;-71
2023/11/07 00:15:11;;;;;;;5.87;5.77;;;8.70;99.90;;;;;;5024496;28;20449;-70
2023/11/07 00:17:38;;;;;;;6.47;6.37;;;8.70;99.90;;;;;;5019550;28;20466;-70
2023/11/07 00:20:05;;;;;;;6.33;6.23;;;8.70;99.90;;;;;;5021182;28;20462;-73
2023/11/07 00:22:35;;;;;;;6.90;6.80;;;8.70;99.90;;;;;;5014500;28;20883;-71
2023/11/07 00:25:02;;;;;;;6.57;6.47;;;8.70;99.90;;;;;;5015708;28;20477;-73
2023/11/07 00:27:33;;;;;;;6.60;6.50;;;8.80;99.90;;;;;;5022619;28;20797;-72
2023/11/07 00:30:00;;;;;;;6.27;6.17;;;8.80;99.90;;;;;;5024030;28;20552;-74
2023/11/07 00:32:27;;;;;;;6.90;6.80;;;8.70;99.90;;;;;;5018599;28;20473;-71
2023/11/07 00:34:53;;;;;;;6.90;6.80;;;8.70;99.90;;;;;;5017492;28;20468;-70
2023/11/07 00:37:20;;;;;;;6.60;6.50;;;8.70;99.90;;;;;;5023892;28;20461;-70
2023/11/07 00:39:47;;;;;;;6.60;6.50;;;8.70;99.90;;;;;;5014766;28;20473;-70
2023/11/07 00:42:14;;;;;;;6.90;6.80;;;8.70;99.90;;;;;;5022138;28;20528;-70
2023/11/07 00:44:42;;;;;;;6.53;6.43;;;8.70;99.90;;;;;;5014434;28;20495;-70
2023/11/07 00:47:09;;;;;;;6.80;6.70;;;8.70;99.90;;;;;;5025302;28;20472;-70
2023/11/07 00:49:36;;;;;;;6.73;6.63;;;8.70;99.90;;;;;;5025519;28;20457;-72
2023/11/07 00:52:03;;;;;;;6.63;6.53;;;8.70;99.90;;;;;;5025586;28;20465;-72
2023/11/07 00:54:29;;;;;;;6.70;6.60;;;8.70;99.90;;;;;;5021053;28;20797;-69
2023/11/07 00:56:56;;;;;;;6.63;6.53;;;8.70;99.90;;;;;;5020476;28;20464;-71
2023/11/07 00:59:23;;;;;;;7.00;6.90;;;8.70;99.90;;;;;;5016406;28;20471;-72
2023/11/07 01:01:51;;;;;;;6.50;6.40;;;8.70;99.90;;;;;;5025028;28;21014;-70
2023/11/07 01:04:18;;;;;;;6.70;6.60;;;8.60;99.90;;;;;;5013168;28;20881;-70
2023/11/07 01:06:45;;;;;;;6.20;6.10;;;8.60;99.90;;;;;;5024592;28;20496;-73
2023/11/07 01:09:13;;;;;;;6.60;6.50;;;8.60;99.90;;;;;;5053984;27;20449;-71
2023/11/07 01:11:40;;;;;;;6.80;6.70;;;8.60;99.90;;;;;;5028940;27;20472;-70
2023/11/07 01:14:07;;;;;;;6.40;6.30;;;8.60;99.90;;;;;;5017519;28;21030;-73
2023/11/07 01:16:35;;;;;;;6.40;6.30;;;8.50;99.90;;;;;;5016752;28;20474;-74
2023/11/07 01:19:04;;;;;;;6.13;6.03;;;8.60;99.90;;;;;;5023935;28;20465;-70
2023/11/07 01:21:31;;;;;;;6.00;5.90;;;8.60;99.90;;;;;;5024373;28;20453;-70
2023/11/07 01:23:58;;;;;;;6.40;6.30;;;8.60;99.90;;;;;;5015050;28;20587;-72
2023/11/07 01:26:24;;;;;;;6.27;6.17;;;8.60;99.90;;;;;;5023574;28;20469;-70
2023/11/07 01:28:52;;;;;;;6.30;6.20;;;8.60;99.90;;;;;;5025294;28;20461;-70
2023/11/07 01:31:19;;;;;;;6.17;6.07;;;8.60;99.90;;;;;;5010327;28;20505;-70
2023/11/07 01:33:46;;;;;;;6.03;5.93;;;8.60;99.90;;;;;;5023225;28;20553;-70
2023/11/07 01:36:14;;;;;;;6.57;6.47;;;8.60;99.90;;;;;;5013704;28;20469;-70
2023/11/07 01:38:40;;;;;;;6.10;6.00;;;8.60;99.90;;;;;;5024307;28;20944;-72
2023/11/07 01:41:07;;;;;;;6.50;6.40;;;8.60;99.90;;;;;;5016117;28;21354;-69
2023/11/07 01:43:34;;;;;;;6.40;6.30;;;8.60;99.90;;;;;;5020269;28;20935;-69
2023/11/07 01:46:02;;;;;;;6.30;6.20;;;8.60;99.90;;;;;;5024049;28;20785;-70
2023/11/07 01:48:30;;;;;;;7.50;7.40;;;8.60;99.90;;;;;;5023221;28;20481;-73
2023/11/07 01:50:57;;;;;;;7.03;6.93;;;8.60;99.90;;;;;;5007686;28;20971;-70
2023/11/07 01:53:25;;;;;;;7.10;7.00;;;8.60;99.90;;;;;;5025824;28;20472;-70
2023/11/07 01:55:52;;;;;;;7.60;7.50;;;8.60;99.90;;;;;;5023511;28;20449;-70
2023/11/07 01:58:21;;;;;;;7.00;6.90;;;8.60;99.90;;;;;;5020356;28;20957;-73
2023/11/07 02:00:49;;;;;;;7.10;7.00;;;8.70;99.90;;;;;;5012817;28;20903;-71
2023/11/07 02:03:16;;;;;;;7.40;7.30;;;8.70;99.90;;;;;;5020087;28;20546;-71
2023/11/07 02:05:44;;;;;;;7.13;7.03;;;8.70;99.90;;;;;;5023622;28;20461;-70
2023/11/07 02:08:11;;;;;;;7.50;7.40;;;8.60;99.90;;;;;;5018811;28;20537;-70
2023/11/07 02:10:40;;;;;;;7.40;7.30;;;8.60;99.90;;;;;;5022483;28;20504;-70
2023/11/07 02:13:07;;;;;;;7.03;6.93;;;8.60;99.90;;;;;;5026960;28;20469;-69
2023/11/07 02:15:37;;;;;;;7.47;7.37;;;8.60;99.90;;;;;;5022521;28;20461;-71
2023/11/07 02:18:06;;;;;;;7.70;7.60;;;8.60;99.90;;;;;;5019273;28;20470;-69
2023/11/07 02:20:36;;;;;;;7.23;7.13;;;8.50;99.90;;;;;;5016402;28;20470;-70
2023/11/07 02:23:07;;;;;;;7.60;7.50;;;8.50;99.90;;;;;;5019439;28;20499;-70
2023/11/07 02:25:35;;;;;;;7.40;7.30;;;8.50;99.90;;;;;;5024474;28;20466;-71
2023/11/07 02:28:03;;;;;;;7.27;7.17;;;8.50;99.90;;;;;;5019334;28;21076;-73
2023/11/07 02:30:30;;;;;;;7.50;7.40;;;8.50;99.90;;;;;;5013630;28;20497;-70
2023/11/07 02:32:57;;;;;;;7.10;7.00;;;8.40;99.90;;;;;;5019149;28;20469;-70
2023/11/07 02:35:24;;;;;;;7.90;7.80;;;8.50;99.90;;;;;;5013849;28;20449;-70
2023/11/07 02:37:52;;;;;;;7.07;6.97;;;8.40;99.90;;;;;;5013926;28;20496;-69
2023/11/07 02:40:18;;;;;;;7.43;7.33;;;8.40;99.90;;;;;;5011495;28;20884;-71
2023/11/07 02:42:47;;;;;;;7.40;7.30;;;8.40;99.90;;;;;;5024497;28;20492;-70
2023/11/07 02:45:14;;;;;;;7.27;7.17;;;8.40;99.90;;;;;;5015714;28;20639;-73
2023/11/07 02:47:41;;;;;;;7.50;7.40;;;8.40;99.90;;;;;;5016972;28;20490;-70
2023/11/07 02:50:10;;;;;;;7.40;7.30;;;8.40;99.90;;;;;;5015575;28;20461;-73
2023/11/07 02:52:37;;;;;;;7.10;7.00;;;8.40;99.90;;;;;;5019480;28;20958;-72
2023/11/07 02:55:05;;;;;;;7.33;7.23;;;8.40;99.90;;;;;;5024465;28;20980;-71
2023/11/07 02:57:33;;;;;;;7.10;7.00;;;8.40;99.90;;;;;;5015966;28;20471;-70
2023/11/07 03:00:01;;;;;;;6.80;6.70;;;8.40;99.90;;;;;;5019235;28;20482;-71
2023/11/07 03:02:28;;;;;;;7.37;7.27;;;8.40;99.90;;;;;;5008868;28;20454;-70
2023/11/07 03:04:55;;;;;;;7.60;7.50;;;8.30;99.90;;;;;;5017307;28;20984;-69
2023/11/07 03:07:23;;;;;;;7.40;7.30;;;8.30;99.90;;;;;;5011386;28;20554;-69
2023/11/07 03:09:51;;;;;;;8.10;8.00;;;8.30;99.90;;;;;;5019389;28;20509;-70
2023/11/07 03:12:18;;;;;;;7.47;7.37;;;8.30;99.90;;;;;;5030200;27;20704;-69
2023/11/07 03:14:44;;;;;;;7.40;7.30;;;8.30;99.90;;;;;;5027226;28;20464;-69
2023/11/07 03:17:14;;;;;;;7.77;7.67;;;8.40;99.90;;;;;;5016817;28;20468;-69
2023/11/07 03:19:40;;;;;;;7.70;7.60;;;8.40;99.90;;;;;;5027118;28;20461;-69
2023/11/07 03:22:07;;;;;;;7.50;7.40;;;8.40;99.90;;;;;;5018050;28;20457;-69
2023/11/07 03:24:35;;;;;;;7.93;7.83;;;8.30;99.90;;;;;;5020915;28;21004;-70
2023/11/07 03:27:02;;;;;;;7.87;7.77;;;8.30;99.90;;;;;;5020466;28;20457;-70
2023/11/07 03:29:29;;;;;;;7.47;7.37;;;8.30;99.90;;;;;;5027210;28;20470;-71
2023/11/07 03:31:56;;;;;;;7.23;7.13;;;8.40;99.90;;;;;;5023922;28;20469;-72
2023/11/07 03:34:24;;;;;;;7.40;7.30;;;8.40;99.90;;;;;;5013323;28;20466;-72
2023/11/07 03:36:51;;;;;;;7.37;7.27;;;8.40;99.90;;;;;;5023502;28;20518;-70
2023/11/07 03:39:19;;;;;;;6.97;6.87;;;8.40;99.90;;;;;;5016639;28;20457;-71
2023/11/07 03:41:46;;;;;;;7.30;7.20;;;8.40;99.90;;;;;;5027167;28;20495;-71
2023/11/07 03:44:13;;;;;;;7.00;6.90;;;8.50;99.90;;;;;;5024592;28;20512;-69
2023/11/07 03:46:40;;;;;;;7.13;7.03;;;8.50;99.90;;;;;;5024445;28;20544;-73
2023/11/07 03:49:07;;;;;;;7.47;7.37;;;8.50;99.90;;;;;;5027573;28;20484;-70
2023/11/07 03:51:35;;;;;;;7.40;7.30;;;8.60;99.90;;;;;;5016787;28;20902;-70
2023/11/07 03:54:02;;;;;;;7.13;7.03;;;8.60;99.90;;;;;;5014565;28;20458;-70
2023/11/07 03:56:29;;;;;;;7.00;6.90;;;8.60;99.90;;;;;;5022406;28;20485;-69
2023/11/07 03:58:56;;;;;;;7.50;7.40;;;8.60;99.90;;;;;;5017470;28;20477;-69
2023/11/07 04:01:23;;;;;;;7.10;7.00;;;8.50;99.90;;;;;;5020609;28;20465;-70
2023/11/07 04:03:50;;;;;;;6.80;6.70;;;8.50;99.90;;;;;;5025790;28;20689;-71
2023/11/07 04:06:18;;;;;;;6.97;6.87;;;8.50;99.90;;;;;;5015956;28;20584;-70
2023/11/07 04:08:46;;;;;;;6.87;6.77;;;8.60;99.90;;;;;;5036554;27;20461;-69
2023/11/07 04:11:14;;;;;;;6.47;6.37;;;8.60;99.90;;;;;;5038196;27;20477;-69
2023/11/07 04:13:42;;;;;;;6.67;6.57;;;8.60;99.90;;;;;;5032337;27;20462;-69
2023/11/07 04:16:09;;;;;;;6.70;6.60;;;8.60;99.90;;;;;;5022608;28;20457;-72
2023/11/07 04:18:36;;;;;;;7.10;7.00;;;8.60;99.90;;;;;;5013299;28;20474;-69
2023/11/07 04:21:04;;;;;;;7.30;7.20;;;8.60;99.90;;;;;;5021641;28;20464;-69
2023/11/07 04:23:32;;;;;;;7.07;6.97;;;8.60;99.90;;;;;;5025730;28;20525;-69
2023/11/07 04:26:02;;;;;;;7.00;6.90;;;8.60;99.90;;;;;;5010459;28;20474;-69
2023/11/07 04:28:28;;;;;;;7.20;7.10;;;8.60;99.90;;;;;;5021694;28;20954;-71
2023/11/07 04:30:55;;;;;;;6.83;6.73;;;8.70;99.90;;;;;;5012854;28;21230;-70
2023/11/07 04:33:22;;;;;;;7.17;7.07;;;8.60;99.90;;;;;;5018847;28;20466;-70
2023/11/07 04:35:49;;;;;;;7.03;6.93;;;8.60;99.90;;;;;;5020365;28;20890;-70
2023/11/07 04:38:18;;;;;;;7.03;6.93;;;8.60;99.90;;;;;;5020642;28;20460;-70
2023/11/07 04:40:46;;;;;;;7.07;6.97;;;8.60;99.90;;;;;;5019598;28;20466;-70
2023/11/07 04:43:15;;;;;;;7.00;6.90;;;8.60;99.90;;;;;;5011664;28;20486;-69
2023/11/07 04:45:42;;;;;;;7.13;7.03;;;8.60;99.90;;;;;;5016751;28;20493;-69
2023/11/07 04:48:11;;;;;;;6.70;6.60;;;8.60;99.90;;;;;;5018923;28;20481;-69
2023/11/07 04:50:37;;;;;;;6.60;6.50;;;8.50;99.90;;;;;;5012712;28;20461;-69
2023/11/07 04:53:05;;;;;;;6.10;6.00;;;8.60;99.90;;;;;;5021945;28;20473;-70
2023/11/07 04:55:32;;;;;;;6.07;5.97;;;8.70;99.90;;;;;;5018008;28;20649;-71
2023/11/07 04:57:59;;;;;;;6.57;6.47;;;8.70;99.90;;;;;;5019813;28;20580;-70
2023/11/07 05:00:28;;;;;;;6.53;6.43;;;8.80;99.90;;;;;;5017692;28;20462;-70
2023/11/07 05:02:55;;;;;;;7.17;7.07;;;8.80;99.90;;;;;;5014441;28;20492;-69
2023/11/07 05:05:22;;;;;;;7.40;7.30;;;8.80;99.90;;;;;;5012894;28;20489;-73
2023/11/07 05:07:48;;;;;;;7.07;6.97;;;8.80;99.90;;;;;;5014788;28;20461;-72
2023/11/07 05:10:16;;;;;;;7.50;7.40;;;8.80;99.90;;;;;;5029843;27;20469;-69
2023/11/07 05:12:43;;;;;;;6.90;6.80;;;8.70;99.90;;;;;;5011144;27;20893;-72
2023/11/07 05:15:10;;;;;;;6.67;6.57;;;8.70;99.90;;;;;;5006611;28;20454;-70
2023/11/07 05:17:39;;;;;;;7.27;7.17;;;8.70;99.90;;;;;;5022018;28;20460;-69
2023/11/07 05:20:10;;;;;;;7.40;7.30;;;8.60;99.90;;;;;;5022483;28;20461;-71
2023/11/07 05:22:37;;;;;;;7.70;7.60;;;8.60;99.90;;;;;;5015558;28;20526;-70
2023/11/07 05:25:06;;;;;;;7.40;7.30;;;8.70;99.90;;;;;;5006709;28;20572;-70
2023/11/07 05:27:33;;;;;;;7.40;7.30;;;8.70;99.90;;;;;;5013989;28;20464;-70
2023/11/07 05:30:00;;;;;;;7.03;6.93;;;8.60;99.90;;;;;;5019618;28;20497;-70
2023/11/07 05:32:27;;;;;;;6.70;6.60;;;8.70;99.90;;;;;;5022308;28;20971;-70
2023/11/07 05:34:56;;;;;;;6.97;6.87;;;8.70;99.90;;;;;;5017211;28;20508;-70
2023/11/07 05:37:23;;;;;;;7.13;7.03;;;8.60;99.90;;;;;;5017473;28;20518;-71
2023/11/07 05:39:50;;;;;;;7.30;7.20;;;8.70;99.90;;;;;;5010476;28;20816;-69
2023/11/07 05:42:17;;;;;;;7.13;7.03;;;8.60;99.90;;;;;;5020525;28;20469;-71
2023/11/07 05:44:44;;;;;;;7.07;6.97;;;8.60;99.90;;;;;;5018928;28;20501;-72
2023/11/07 05:47:11;;;;;;;6.57;6.47;;;8.60;99.90;;;;;;5011239;28;20554;-70
2023/11/07 05:49:38;;;;;;;6.60;6.50;;;8.50;99.90;;;;;;5023963;28;20484;-69
2023/11/07 05:52:07;;;;;;;6.30;6.20;;;8.60;99.90;;;;;;5024416;28;20457;-72
2023/11/07 05:54:34;;;;;;;6.70;6.60;;;8.60;99.90;;;;;;5015630;28;20594;-71
2023/11/07 05:57:01;;;;;;;6.50;6.40;;;8.60;99.90;;;;;;5014096;28;21408;-69
2023/11/07 05:59:28;;;;;;;6.50;6.40;;;8.60;99.90;;;;;;5010667;28;20472;-69
2023/11/07 06:01:55;;;;;;;6.70;6.60;;;8.50;99.90;;;;;;5024591;28;20476;-69
2023/11/07 06:04:34;;;;;;;6.47;6.37;;;8.50;99.90;;;;;;5016532;28;20494;-72
2023/11/07 06:07:01;;;;;;;6.93;6.83;;;8.40;99.90;;;;;;5015515;28;20524;-70
2023/11/07 06:09:30;;;;;;;6.80;6.70;;;8.40;99.90;;;;;;5017357;28;21048;-70
2023/11/07 06:11:58;;;;;;;7.13;7.03;;;8.30;99.90;;;;;;5019574;28;20466;-70
2023/11/07 06:14:25;;;;;;;7.10;7.00;;;8.30;99.90;;;;;;5021685;28;20825;-69
2023/11/07 06:16:53;;;;;;;6.80;6.70;;;8.30;99.90;;;;;;5023801;28;20828;-69
2023/11/07 06:19:20;;;;;;;6.80;6.70;;;8.20;99.90;;;;;;5014136;28;20462;-70
2023/11/07 06:21:49;;;;;;;6.67;6.57;;;8.20;99.90;;;;;;5023287;28;20453;-69
2023/11/07 06:24:16;;;;;;;6.07;5.97;;;8.20;99.90;;;;;;5019567;28;20496;-70
2023/11/07 06:26:45;;;;;;;6.47;6.37;;;8.20;99.90;;;;;;5020797;28;20970;-71
2023/11/07 06:29:12;;;;;;;6.63;6.53;;;8.30;99.90;;;;;;5017404;28;20469;-70
2023/11/07 06:31:39;;;;;;;6.13;6.03;;;8.30;99.90;;;;;;5024143;28;20550;-70
2023/11/07 06:34:07;;;;;;;6.20;6.10;;;8.40;99.90;;;;;;5013290;28;20516;-72
2023/11/07 06:36:34;;;;;;;6.27;6.17;;;8.50;99.90;;;;;;5023772;28;20541;-71
2023/11/07 06:39:00;;;;;;;6.70;6.60;;;8.50;99.90;;;;;;5024309;28;20461;-70
2023/11/07 06:41:28;;;;;;;6.47;6.37;;;8.60;99.90;;;;;;5015192;28;20454;-70
2023/11/07 06:43:56;;;;;;;6.57;6.47;;;8.60;99.90;;;;;;5020327;28;20496;-71
2023/11/07 06:46:23;;;;;;;7.00;6.90;;;8.60;99.90;;;;;;5010021;28;21015;-70
2023/11/07 06:48:50;;;;;;;7.17;7.07;;;8.50;99.90;;;;;;5018525;28;20561;-70
2023/11/07 06:51:18;;;;;;;7.50;7.40;;;8.50;99.90;;;;;;5023824;28;20478;-69
2023/11/07 06:53:45;;;;;;;7.80;7.70;;;8.40;99.90;;;;;;5019624;28;20560;-70
2023/11/07 06:56:13;;;;;;;7.60;7.50;;;8.30;99.90;;;;;;5023957;28;20477;-72
2023/11/07 06:58:40;;;;;;;7.87;7.77;;;8.30;99.90;;;;;;5026128;28;20552;-72
2023/11/07 07:01:09;;;;;;;6.77;6.67;;;8.30;99.90;;;;;;5026130;28;20552;-69
2023/11/07 07:03:36;;;;;;;7.60;7.50;;;8.20;99.90;;;;;;5017951;28;21011;-69
2023/11/07 07:06:03;;;;;;;7.20;7.10;;;8.20;99.90;;;;;;5015668;28;20461;-69
2023/11/07 07:08:30;;;;;;;7.40;7.30;;;8.20;99.90;;;;;;5022290;28;20462;-69
2023/11/07 07:10:58;;;;;;;7.17;7.07;;;8.20;99.90;;;;;;5015241;28;20465;-68
2023/11/07 07:13:25;;;;;;;6.80;6.70;;;8.30;99.90;;;;;;5026142;27;20489;-70
2023/11/07 07:15:51;;;;;;;6.83;6.73;;;8.40;99.90;;;;;;5020773;28;20473;-70
2023/11/07 07:18:22;;;;;;;6.47;6.37;;;8.50;99.90;;;;;;5014247;28;20529;-69
2023/11/07 07:21:05;;;;;;;7.10;7.00;;;8.50;99.90;;;;;;5022147;28;20437;-69
2023/11/07 07:23:35;;;;;;;7.03;6.93;;;8.60;99.90;;;;;;5015506;28;20561;-69
2023/11/07 07:26:08;;;;;;;6.83;6.73;;;8.70;99.90;;;;;;5014201;28;20560;-69
2023/11/07 07:28:36;;;;;;;6.70;6.60;;;8.70;99.90;;;;;;5020811;28;20469;-70
2023/11/07 07:31:06;;;;;;;6.00;5.90;;;8.80;99.90;;;;;;5013054;28;20542;-71
2023/11/07 07:33:34;;;;;;;6.70;6.60;;;8.80;99.90;;;;;;5013763;28;20878;-69
2023/11/07 07:36:04;;;;;;;6.23;6.13;;;8.90;99.90;;;;;;5020175;28;20487;-69
2023/11/07 07:38:31;;;;;;;6.93;6.83;;;8.80;99.90;;;;;;5023137;28;21156;-69
2023/11/07 07:40:58;;;;;;;6.87;6.77;;;8.80;99.90;;;;;;5014430;28;20477;-72
2023/11/07 07:43:26;;;;;;;6.77;6.67;;;8.80;99.90;;;;;;5014739;28;20457;-69
2023/11/07 07:45:55;;;;;;;6.33;6.23;;;8.90;99.90;;;;;;5017888;28;20492;-70
2023/11/07 07:48:22;;;;;;;6.10;6.00;;;8.90;99.90;;;;;;5024391;28;20477;-69
2023/11/07 07:50:51;;;;;;;6.80;6.70;;;8.90;99.90;;;;;;5019343;28;20553;-70
2023/11/07 07:53:20;;;;;;;6.40;6.30;;;9.00;99.90;;;;;;5027216;28;20457;-71
2023/11/07 07:55:50;;;;;;;6.57;6.47;;;9.00;99.90;;;;;;5016379;28;20564;-70
2023/11/07 07:58:19;;;;;;;6.33;6.23;;;9.00;99.90;;;;;;5012172;28;20467;-70
2023/11/07 08:00:49;;;;;;;6.23;6.13;;;9.00;99.90;;;;;;5016280;28;20454;-69
2023/11/07 08:03:16;;;;;;;6.27;6.17;;;9.10;99.90;;;;;;5019667;28;21280;-71
2023/11/07 08:05:44;;;;;;;5.80;5.70;;;9.10;99.90;;;;;;5014024;28;20485;-69
2023/11/07 08:08:14;;;;;;;7.00;6.90;;;9.30;99.90;;;;;;5025427;28;20461;-72
2023/11/07 08:10:47;;;;;;;6.50;6.40;;;9.40;99.90;;;;;;5021526;27;20517;-69
2023/11/07 08:13:15;;;;;;;6.87;6.77;;;9.60;99.90;;;;;;5002237;28;20636;-73
2023/11/07 08:15:42;;;;;;;6.67;6.57;;;9.80;99.90;;;;;;5008942;28;20481;-73
2023/11/07 08:18:08;;;;;;;7.47;7.37;;;9.90;99.90;;;;;;5009963;28;20543;-70
2023/11/07 08:20:36;;;;;;;7.17;7.07;;;10.00;99.90;;;;;;5013510;28;20466;-70
2023/11/07 08:23:04;;;;;;;7.30;7.20;;;10.10;99.90;;;;;;5009649;28;20812;-70
2023/11/07 08:25:32;;;;;;;7.23;7.13;;;10.30;99.90;;;;;;5011907;28;20502;-70
2023/11/07 08:27:59;;;;;;;7.70;7.60;;;10.30;99.90;;;;;;5008390;28;20831;-70
2023/11/07 08:30:26;;;;;;;7.20;7.10;;;10.40;99.90;;;;;;5002729;28;20498;-70
2023/11/07 08:32:53;;;;;;;7.40;7.30;;;10.50;99.90;;;;;;5011724;28;20487;-73
2023/11/07 08:35:21;;;;;;;7.63;7.53;;;10.40;99.90;;;;;;5010304;28;20823;-70
2023/11/07 08:37:49;;;;;;;7.73;7.63;;;10.50;99.90;;;;;;5012161;28;20549;-71
2023/11/07 08:40:20;;;;;;;8.20;8.10;;;10.60;99.90;;;;;;5008700;28;20467;-69
2023/11/07 08:42:50;;;;;;;8.30;8.20;;;10.60;99.90;;;;;;5009269;28;20972;-72
2023/11/07 08:45:18;;;;;;;8.13;8.03;;;10.70;99.90;;;;;;5012182;28;21004;-69
2023/11/07 08:47:46;;;;;;;8.37;8.27;;;10.80;99.90;;;;;;5006840;28;20482;-70
2023/11/07 08:50:13;;;;;;;8.60;8.50;;;10.90;99.90;;;;;;5009444;28;20677;-69
2023/11/07 08:52:41;;;;;;;8.53;8.43;;;11.10;99.90;;;;;;5010839;28;20553;-72
2023/11/07 08:55:10;;;;;;;9.40;9.20;;;11.20;99.90;;;;;;5011743;28;20462;-70
2023/11/07 08:57:38;;;;;;;9.27;9.07;;;11.10;99.90;;;;;;5006490;28;20463;-70
2023/11/07 09:00:12;;;;;;;9.60;9.40;;;11.10;99.90;;;;;;5011725;28;20469;-70
2023/11/07 09:02:39;;;;;;;9.70;9.50;;;11.20;99.90;;;;;;5009900;28;20477;-69
2023/11/07 09:05:07;;;;;;;10.23;10.03;;;11.20;99.90;;;;;;5011534;28;20491;-72
2023/11/07 09:07:34;;;;;;;10.00;9.80;;;11.10;99.90;;;;;;5009605;28;21053;-70
2023/11/07 09:10:01;;;;;;;10.07;9.87;;;11.20;99.90;;;;;;5009048;28;20544;-70
2023/11/07 09:12:29;;;;;;;10.50;10.30;;;11.20;99.90;;;;;;5012010;27;20898;-69
2023/11/07 09:14:56;;;;;;;11.00;10.70;;;11.20;99.90;;;;;;5010391;28;20556;-72
2023/11/07 09:17:25;;;;;;;10.30;10.10;;;11.30;99.90;;;;;;5009118;28;20976;-70
2023/11/07 09:19:52;;;;;;;10.97;10.67;;;11.20;99.90;;;;;;5011500;28;20462;-71
2023/11/07 09:22:19;;;;;;;11.10;10.80;;;11.10;99.90;;;;;;5009420;28;20476;-71
2023/11/07 09:24:47;;;;;;;11.27;10.97;;;11.20;99.90;;;;;;5011266;28;20473;-70
2023/11/07 09:27:14;;;;;;;11.20;10.90;;;11.40;99.90;;;;;;5006904;28;20473;-70
2023/11/07 09:29:41;;;;;;;10.47;10.27;;;11.50;99.90;;;;;;5007179;28;20468;-72
2023/11/07 09:32:08;;;;;;;10.90;10.60;;;11.50;99.90;;;;;;5011109;28;20498;-70
2023/11/07 09:34:39;;;;;;;11.23;10.93;;;11.60;99.90;;;;;;5010505;28;20477;-71
2023/11/07 09:37:07;;;;;;;11.30;11.00;;;11.60;99.90;;;;;;5010765;28;20466;-70
2023/11/07 09:39:35;;;;;;;11.37;11.07;;;11.80;99.90;;;;;;5011671;28;20508;-71
2023/11/07 09:42:07;;;;;;;11.40;11.10;;;11.80;99.90;;;;;;5005182;28;20481;-70
2023/11/07 09:44:35;;;;;;;11.80;11.50;;;12.00;99.90;;;;;;5007492;28;20579;-70
2023/11/07 09:47:04;;;;;;;11.70;11.40;;;12.00;99.90;;;;;;5004611;28;20479;-69
2023/11/07 09:49:31;;;;;;;11.57;11.27;;;12.00;99.90;;;;;;5008213;28;20870;-72
2023/11/07 09:52:01;;;;;;;12.60;12.20;;;12.00;99.90;;;;;;5004824;28;20920;-70
2023/11/07 09:54:30;;;;;;;13.20;12.80;;;11.90;99.90;;;;;;5007316;28;20527;-73
2023/11/07 09:57:01;;;;;;;12.97;12.57;;;11.80;99.90;;;;;;5007525;28;20460;-71
2023/11/07 09:59:34;;;;;;;12.43;12.03;;;11.90;99.90;;;;;;5008300;28;20471;-71
2023/11/07 10:02:01;;;;;;;12.90;12.50;;;12.10;99.90;;;;;;5003712;28;21012;-71
2023/11/07 10:04:28;;;;;;;12.73;12.33;;;12.00;99.90;;;;;;5008449;28;20481;-71
2023/11/07 10:06:55;;;;;;;12.60;12.20;;;12.20;99.90;;;;;;5005771;28;20567;-71
2023/11/07 10:09:23;;;;;;;12.47;12.07;;;12.20;99.90;;;;;;5010740;28;20460;-71
2023/11/07 10:11:53;;;;;;;12.83;12.43;;;12.40;99.90;;;;;;5006074;28;20567;-71
2023/11/07 10:14:20;;;;;;;13.10;12.70;;;12.40;99.90;;;;;;5010598;28;20496;-72
2023/11/07 10:16:51;;;;;;;13.27;12.87;;;12.40;99.90;;;;;;5009101;28;20464;-70
2023/11/07 10:19:20;;;;;;;13.27;12.87;;;12.20;99.90;;;;;;5009616;28;20472;-72
2023/11/07 10:21:47;;;;;;;13.17;12.77;;;12.20;99.90;;;;;;5010797;28;20468;-70
2023/11/07 10:24:15;;;;;;;12.80;12.40;;;12.20;99.90;;;;;;5007730;28;20468;-73
2023/11/07 10:26:52;;;;;;;12.67;12.27;;;12.20;99.90;;;;;;5007575;28;20793;-69
2023/11/07 10:29:26;;;;;;;12.70;12.30;;;12.30;99.90;;;;;;5006127;28;21064;-71
2023/11/07 10:32:02;;;;;;;12.70;12.30;;;12.60;99.90;;;;;;5008499;28;20562;-70
2023/11/07 10:34:30;;;;;;;13.03;12.63;;;12.80;99.90;;;;;;5008029;28;20466;-71
2023/11/07 10:36:58;;;;;;;12.80;12.40;;;13.00;99.90;;;;;;5009431;28;20507;-73
2023/11/07 10:39:26;;;;;;;13.30;12.90;;;13.00;99.90;;;;;;5008553;28;20472;-71
2023/11/07 10:41:55;;;;;;;13.27;12.87;;;12.60;99.90;;;;;;5009776;28;20588;-71
2023/11/07 10:44:24;;;;;;;13.13;12.73;;;12.80;99.90;;;;;;4961367;28;1263597;-71
2023/11/07 10:46:53;;;;;;;13.37;12.97;;;12.90;99.90;;;;;;5011664;28;20534;-72
2023/11/07 10:49:20;;;;;;;13.97;13.47;;;13.00;99.90;;;;;;5008519;28;20488;-74
2023/11/07 10:51:48;;;;;;;13.63;13.23;;;13.00;99.90;;;;;;5009371;28;20480;-71
2023/11/07 10:54:15;;;;;;;13.77;13.33;;;13.00;99.90;;;;;;5010438;28;20474;-70
2023/11/07 10:59:28;;;;;;;14.03;13.53;;;12.80;99.90;;;;;;5008396;28;20461;-73
2023/11/07 11:01:59;;;;;;;13.80;13.37;;;13.10;99.90;;;;;;5006284;28;20505;-74
2023/11/07 11:04:29;;;;;;;13.90;13.40;;;13.20;99.90;;;;;;5010877;28;20462;-71
2023/11/07 11:07:03;;;;;;;13.97;13.57;;;13.20;99.90;;;;;;5010186;28;20501;-71
2023/11/07 11:09:33;;;;;;;13.60;13.20;;;13.10;99.90;;;;;;5007483;28;20471;-71
2023/11/07 11:12:02;;;;;;;14.70;14.20;;;13.20;99.90;;;;;;5008230;28;20493;-74
2023/11/07 11:14:31;;;;;;;14.10;13.60;;;13.20;99.90;;;;;;5009988;28;20772;-73
2023/11/07 11:17:07;;;;;;;13.83;13.43;;;13.00;99.90;;;;;;5004635;28;20521;-73
2023/11/07 11:19:39;;;;;;;13.80;13.40;;;13.00;99.90;;;;;;5009962;28;22267;-69
2023/11/07 11:22:14;;;;;;;13.53;13.13;;;13.10;99.90;;;;;;5009886;28;20465;-73
2023/11/07 11:24:53;;;;;;;14.60;14.10;;;13.40;99.90;;;;;;5010205;28;20860;-72
2023/11/07 11:27:25;;;;;;;14.40;13.90;;;13.50;99.90;;;;;;5008036;28;20469;-70
2023/11/07 11:29:53;;;;;;;14.07;13.57;;;14.00;99.90;;;;;;5006489;28;20461;-72
2023/11/07 11:32:28;;;;;;;14.00;13.50;;;14.20;99.90;;;;;;5005321;28;20471;-70
2023/11/07 11:35:10;;;;;;;14.40;13.90;;;13.60;99.90;;;;;;5014852;28;20467;-71
2023/11/07 11:38:09;;;;;;;13.87;13.40;;;13.20;99.90;;;;;;5011383;28;20468;-69
2023/11/07 11:40:54;;;;;;;14.27;13.77;;;12.80;99.90;;;;;;5008813;28;20456;-70
2023/11/07 11:43:22;;;;;;;14.70;14.20;;;12.90;99.90;;;;;;5009759;28;20986;-70
2023/11/07 11:45:51;;;;;;;14.60;14.10;;;12.90;99.90;;;;;;5011370;28;20510;-70
2023/11/07 11:48:21;;;;;;;14.40;13.90;;;12.60;99.90;;;;;;5010537;28;20570;-70
2023/11/07 11:51:09;;;;;;;14.90;14.40;;;12.40;99.90;;;;;;5010467;28;20467;-71
2023/11/07 11:53:36;;;;;;;17.93;17.07;;;12.20;99.90;;;;;;5008522;28;20892;-69
2023/11/07 11:56:11;;;;;;;22.63;21.03;;;11.90;99.90;;;;;;5009445;28;20472;-69
2023/11/07 11:59:00;;;;;;;22.13;20.63;;;11.50;99.90;;;;;;5009094;28;20917;-70
2023/11/07 12:01:32;;;;;;;19.57;18.37;;;11.20;99.90;;;;;;5012766;28;20463;-69
2023/11/07 12:04:00;;;;;;;17.70;16.70;;;11.40;99.90;;;;;;5009489;28;20471;-70
2023/11/07 12:06:27;;;;;;;18.83;17.73;;;11.40;99.90;;;;;;5005182;28;20522;-71
2023/11/07 12:08:55;;;;;;;19.13;18.03;;;11.40;99.90;;;;;;5014597;27;20995;-70
2023/11/07 12:11:23;;;;;;;18.33;17.33;;;11.50;99.90;;;;;;5011344;28;20459;-69
2023/11/07 12:13:51;;;;;;;18.73;17.63;;;11.60;99.90;;;;;;5013101;27;21176;-70
2023/11/07 12:16:20;;;;;;;18.80;17.70;;;11.60;99.90;;;;;;5012495;28;20569;-71
2023/11/07 12:18:51;;;;;;;18.30;17.30;;;11.60;99.90;;;;;;5005924;28;20467;-70
2023/11/07 12:21:23;;;;;;;18.53;17.53;;;11.60;99.90;;;;;;5010931;28;20491;-69
2023/11/07 12:23:55;;;;;;;18.00;17.00;;;11.40;99.90;;;;;;5004589;28;20958;-70
2023/11/07 12:26:23;;;;;;;18.47;17.37;;;11.40;99.90;;;;;;5011213;28;21020;-69
2023/11/07 12:28:50;;;;;;;19.37;18.27;;;11.20;99.90;;;;;;5008927;28;20484;-69
2023/11/07 12:31:18;;;;;;;18.43;17.43;;;11.00;99.90;;;;;;5012643;28;20457;-70
2023/11/07 12:33:46;;;;;;;18.27;17.27;;;10.90;99.90;;;;;;5006627;28;20569;-71
2023/11/07 12:36:15;;;;;;;17.80;16.80;;;10.70;99.90;;;;;;5012661;28;20867;-70
2023/11/07 12:38:43;;;;;;;18.10;17.10;;;10.70;99.90;;;;;;5010780;28;20811;-71
2023/11/07 12:41:11;;;;;;;16.80;15.90;;;10.60;99.90;;;;;;5005020;28;20496;-72
2023/11/07 12:43:40;;;;;;;16.27;15.47;;;10.60;99.90;;;;;;5010227;28;20470;-71
2023/11/07 12:46:11;;;;;;;16.50;15.70;;;10.70;99.90;;;;;;5011454;28;20926;-70
2023/11/07 12:48:38;;;;;;;16.20;15.40;;;10.70;99.90;;;;;;5009948;28;20950;-70
2023/11/07 12:51:08;;;;;;;16.67;15.87;;;10.80;99.90;;;;;;5006999;28;20471;-70
2023/11/07 12:53:47;;;;;;;16.60;15.80;;;10.70;99.90;;;;;;5009577;28;20465;-70
2023/11/07 12:56:17;;;;;;;17.30;16.40;;;10.70;99.90;;;;;;5010344;28;20473;-70